ARG1766 SABE-SARP
Flight info
| Callsign | ARG1766 |
|---|---|
| Flight time | 1h 21m |
| Altitude | 37000 |
| Route | LANDA4B LANDA UN785 BOKIL DCT POS |
| Aircraft | B738/M-SDE2E3FGHIRWXY/LB1 |
Departure
| Time | 2026-05-07 19:10 |
|---|---|
| Airport | Aeroparque Jorge Newbery (SABE) |
Arrival
| Time | 2026-05-07 20:31 |
|---|---|
| Airport | Libertador Gral D Jose De San Martin Airport (SARP) |
| Time | Latitude | Longitude | Altitude | Speed | Heading |
|---|---|---|---|---|---|
| 2026-05-07 18:54 | -34.55784 | -58.41484 | 28 ft | 0 kts | 208° |
| 2026-05-07 19:00 | -34.55776 | -58.41479 | 28 ft | 3 kts | 211° |
| 2026-05-07 19:00 | -34.55761 | -58.41468 | 28 ft | 3 kts | 223° |
| 2026-05-07 19:00 | -34.55751 | -58.41451 | 28 ft | 3 kts | 272° |
| 2026-05-07 19:00 | -34.55756 | -58.41429 | 28 ft | 3 kts | 298° |
| 2026-05-07 19:01 | -34.55761 | -58.41418 | 28 ft | 1 kts | 299° |
| 2026-05-07 19:04 | -34.55757 | -58.41426 | 28 ft | 3 kts | 299° |
| 2026-05-07 19:04 | -34.55743 | -58.41459 | 28 ft | 6 kts | 298° |
| 2026-05-07 19:04 | -34.55722 | -58.41507 | 28 ft | 7 kts | 291° |
| 2026-05-07 19:04 | -34.55734 | -58.41556 | 28 ft | 6 kts | 223° |
| 2026-05-07 19:05 | -34.55776 | -58.41585 | 28 ft | 7 kts | 197° |
| 2026-05-07 19:05 | -34.55816 | -58.41552 | 27 ft | 8 kts | 120° |
| 2026-05-07 19:05 | -34.55844 | -58.41489 | 27 ft | 9 kts | 116° |
| 2026-05-07 19:05 | -34.55872 | -58.41418 | 28 ft | 10 kts | 116° |
| 2026-05-07 19:06 | -34.55904 | -58.41341 | 28 ft | 11 kts | 117° |
| 2026-05-07 19:06 | -34.55993 | -58.41181 | 28 ft | 12 kts | 127° |
| 2026-05-07 19:06 | -34.56047 | -58.41095 | 28 ft | 13 kts | 127° |
| 2026-05-07 19:07 | -34.56105 | -58.41005 | 28 ft | 14 kts | 127° |
| 2026-05-07 19:07 | -34.56159 | -58.40910 | 28 ft | 13 kts | 122° |
| 2026-05-07 19:07 | -34.56205 | -58.40823 | 28 ft | 12 kts | 134° |
| 2026-05-07 19:07 | -34.56260 | -58.40759 | 28 ft | 10 kts | 135° |
| 2026-05-07 19:08 | -34.56312 | -58.40701 | 27 ft | 10 kts | 137° |
| 2026-05-07 19:08 | -34.56372 | -58.40654 | 29 ft | 11 kts | 171° |
| 2026-05-07 19:08 | -34.56410 | -58.40696 | 27 ft | 7 kts | 273° |
| 2026-05-07 19:08 | -34.56391 | -58.40739 | 26 ft | 5 kts | 304° |
| 2026-05-07 19:09 | -34.56375 | -58.40767 | 27 ft | 3 kts | 305° |
| 2026-05-07 19:09 | -34.56357 | -58.40798 | 26 ft | 16 kts | 304° |
| 2026-05-07 19:09 | -34.56170 | -58.41136 | 28 ft | 81 kts | 304° |
| 2026-05-07 19:09 | -34.55740 | -58.41907 | 27 ft | 138 kts | 304° |
| 2026-05-07 19:10 | -34.55150 | -58.42973 | 389 ft | 161 kts | 302° |
| 2026-05-07 19:10 | -34.54530 | -58.44155 | 1038 ft | 171 kts | 294° |
| 2026-05-07 19:10 | -34.53711 | -58.45237 | 1821 ft | 185 kts | 319° |
| 2026-05-07 19:10 | -34.52475 | -58.45872 | 2480 ft | 204 kts | 340° |
| 2026-05-07 19:11 | -34.50987 | -58.45915 | 3016 ft | 228 kts | 4° |
| 2026-05-07 19:11 | -34.49457 | -58.45182 | 3552 ft | 247 kts | 26° |
| 2026-05-07 19:11 | -34.47935 | -58.44053 | 4171 ft | 265 kts | 28° |
| 2026-05-07 19:11 | -34.46345 | -58.42817 | 4866 ft | 279 kts | 28° |
| 2026-05-07 19:12 | -34.44685 | -58.41535 | 5665 ft | 286 kts | 27° |
| 2026-05-07 19:12 | -34.43005 | -58.40262 | 6667 ft | 284 kts | 27° |
| 2026-05-07 19:12 | -34.41338 | -58.39019 | 7657 ft | 281 kts | 27° |
| 2026-05-07 19:12 | -34.39658 | -58.37819 | 8562 ft | 281 kts | 21° |
| 2026-05-07 19:13 | -34.37811 | -58.37164 | 9479 ft | 277 kts | 4° |
| 2026-05-07 19:13 | -34.35921 | -58.37399 | 10240 ft | 276 kts | 338° |
| 2026-05-07 19:13 | -34.34187 | -58.38445 | 10765 ft | 285 kts | 326° |
| 2026-05-07 19:13 | -34.32533 | -58.39865 | 11187 ft | 299 kts | 322° |
| 2026-05-07 19:14 | -34.30788 | -58.41348 | 11611 ft | 315 kts | 324° |
| 2026-05-07 19:14 | -34.28915 | -58.42826 | 12040 ft | 328 kts | 325° |
| 2026-05-07 19:14 | -34.26987 | -58.44350 | 12677 ft | 334 kts | 324° |
| 2026-05-07 19:14 | -34.25062 | -58.45919 | 13472 ft | 336 kts | 322° |
| 2026-05-07 19:15 | -34.23142 | -58.47522 | 14234 ft | 336 kts | 322° |
| 2026-05-07 19:15 | -34.21219 | -58.49133 | 15025 ft | 337 kts | 323° |
| 2026-05-07 19:15 | -34.19287 | -58.50739 | 15760 ft | 339 kts | 323° |
| 2026-05-07 19:15 | -34.17346 | -58.52339 | 16494 ft | 341 kts | 324° |
| 2026-05-07 19:16 | -34.15384 | -58.53952 | 17224 ft | 342 kts | 324° |
| 2026-05-07 19:16 | -34.13340 | -58.55436 | 17920 ft | 347 kts | 332° |
| 2026-05-07 19:16 | -34.11048 | -58.56370 | 18545 ft | 352 kts | 345° |
| 2026-05-07 19:16 | -34.08608 | -58.56681 | 19236 ft | 354 kts | 351° |
| 2026-05-07 19:17 | -34.06163 | -58.56816 | 19960 ft | 351 kts | 352° |
| 2026-05-07 19:17 | -34.03734 | -58.56913 | 20671 ft | 349 kts | 352° |
| 2026-05-07 19:17 | -34.01315 | -58.57008 | 21342 ft | 346 kts | 352° |
| 2026-05-07 19:17 | -33.98921 | -58.57117 | 21971 ft | 345 kts | 352° |
| 2026-05-07 19:18 | -33.96528 | -58.57236 | 22566 ft | 345 kts | 351° |
| 2026-05-07 19:18 | -33.94137 | -58.57364 | 23175 ft | 343 kts | 351° |
| 2026-05-07 19:18 | -33.91759 | -58.57490 | 23646 ft | 343 kts | 352° |
| 2026-05-07 19:18 | -33.89382 | -58.57604 | 24079 ft | 342 kts | 352° |
| 2026-05-07 19:19 | -33.86995 | -58.57710 | 24459 ft | 345 kts | 353° |
| 2026-05-07 19:19 | -33.84580 | -58.57812 | 24878 ft | 348 kts | 353° |
| 2026-05-07 19:19 | -33.82165 | -58.57906 | 25338 ft | 348 kts | 353° |
| 2026-05-07 19:19 | -33.79754 | -58.58009 | 25731 ft | 347 kts | 353° |
| 2026-05-07 19:20 | -33.77337 | -58.58113 | 26079 ft | 349 kts | 353° |
| 2026-05-07 19:20 | -33.74913 | -58.58218 | 26401 ft | 349 kts | 354° |
| 2026-05-07 19:20 | -33.72489 | -58.58325 | 26717 ft | 350 kts | 354° |
| 2026-05-07 19:20 | -33.70055 | -58.58435 | 27006 ft | 352 kts | 354° |
| 2026-05-07 19:21 | -33.67601 | -58.58544 | 27314 ft | 355 kts | 354° |
| 2026-05-07 19:21 | -33.65133 | -58.58649 | 27684 ft | 355 kts | 355° |
| 2026-05-07 19:21 | -33.62662 | -58.58751 | 27963 ft | 357 kts | 355° |
| 2026-05-07 19:21 | -33.60173 | -58.58858 | 28253 ft | 359 kts | 355° |
| 2026-05-07 19:22 | -33.57677 | -58.58964 | 28544 ft | 361 kts | 355° |
| 2026-05-07 19:22 | -33.55166 | -58.59074 | 28848 ft | 362 kts | 355° |
| 2026-05-07 19:22 | -33.52659 | -58.59185 | 29152 ft | 363 kts | 355° |
| 2026-05-07 19:22 | -33.50123 | -58.59302 | 29447 ft | 365 kts | 355° |
| 2026-05-07 19:23 | -33.47578 | -58.59420 | 29746 ft | 367 kts | 355° |
| 2026-05-07 19:23 | -33.45027 | -58.59527 | 30006 ft | 368 kts | 356° |
| 2026-05-07 19:23 | -33.42487 | -58.59637 | 30263 ft | 366 kts | 356° |
| 2026-05-07 19:23 | -33.39948 | -58.59746 | 30524 ft | 366 kts | 355° |
| 2026-05-07 19:24 | -33.37409 | -58.59853 | 30831 ft | 365 kts | 356° |
| 2026-05-07 19:24 | -33.34881 | -58.59962 | 31138 ft | 364 kts | 355° |
| 2026-05-07 19:24 | -33.32364 | -58.60069 | 31446 ft | 361 kts | 355° |
| 2026-05-07 19:24 | -33.29862 | -58.60175 | 31732 ft | 360 kts | 355° |
| 2026-05-07 19:25 | -33.27371 | -58.60282 | 32026 ft | 358 kts | 355° |
| 2026-05-07 19:25 | -33.24885 | -58.60393 | 32324 ft | 358 kts | 355° |
| 2026-05-07 19:25 | -33.22405 | -58.60499 | 32635 ft | 357 kts | 355° |
| 2026-05-07 19:25 | -33.19929 | -58.60605 | 32935 ft | 356 kts | 355° |
| 2026-05-07 19:26 | -33.17466 | -58.60712 | 33279 ft | 355 kts | 355° |
| 2026-05-07 19:26 | -33.15004 | -58.60814 | 33578 ft | 355 kts | 355° |
| 2026-05-07 19:26 | -33.12545 | -58.60920 | 33889 ft | 352 kts | 355° |
| 2026-05-07 19:26 | -33.10102 | -58.61027 | 34123 ft | 352 kts | 355° |
| 2026-05-07 19:27 | -33.07657 | -58.61135 | 34306 ft | 353 kts | 355° |
| 2026-05-07 19:27 | -33.05202 | -58.61243 | 34496 ft | 354 kts | 355° |
| 2026-05-07 19:27 | -33.02742 | -58.61339 | 34673 ft | 356 kts | 356° |
| 2026-05-07 19:27 | -33.00271 | -58.61064 | 34844 ft | 362 kts | 6° |
| 2026-05-07 19:28 | -32.97827 | -58.60279 | 35022 ft | 366 kts | 9° |
| 2026-05-07 19:28 | -32.95381 | -58.59405 | 35174 ft | 370 kts | 10° |
| 2026-05-07 19:28 | -32.92925 | -58.58497 | 35368 ft | 371 kts | 10° |
| 2026-05-07 19:28 | -32.90459 | -58.57579 | 35565 ft | 373 kts | 10° |
| 2026-05-07 19:29 | -32.87986 | -58.56659 | 35783 ft | 374 kts | 10° |
| 2026-05-07 19:29 | -32.85509 | -58.55746 | 35978 ft | 374 kts | 10° |
| 2026-05-07 19:29 | -32.83018 | -58.54842 | 36187 ft | 376 kts | 9° |
| 2026-05-07 19:29 | -32.80522 | -58.53942 | 36401 ft | 375 kts | 9° |
| 2026-05-07 19:30 | -32.78024 | -58.53035 | 36602 ft | 377 kts | 9° |
| 2026-05-07 19:30 | -32.75512 | -58.52121 | 36677 ft | 381 kts | 9° |
| 2026-05-07 19:30 | -32.70420 | -58.50267 | 36692 ft | 386 kts | 10° |
| 2026-05-07 19:31 | -32.65333 | -58.48415 | 36684 ft | 379 kts | 9° |
| 2026-05-07 19:31 | -32.60354 | -58.46600 | 36657 ft | 368 kts | 11° |
| 2026-05-07 19:32 | -32.55508 | -58.44840 | 36676 ft | 365 kts | 11° |
| 2026-05-07 19:32 | -32.50658 | -58.43090 | 36684 ft | 366 kts | 10° |
| 2026-05-07 19:33 | -32.45789 | -58.41337 | 36664 ft | 366 kts | 11° |
| 2026-05-07 19:33 | -32.40927 | -58.39580 | 36682 ft | 367 kts | 11° |
| 2026-05-07 19:34 | -32.36002 | -58.37800 | 36682 ft | 372 kts | 11° |
| 2026-05-07 19:34 | -32.31055 | -58.36011 | 36681 ft | 373 kts | 11° |
| 2026-05-07 19:35 | -32.26111 | -58.34228 | 36677 ft | 371 kts | 11° |
| 2026-05-07 19:35 | -32.21206 | -58.32466 | 36680 ft | 367 kts | 10° |
| 2026-05-07 19:36 | -32.16295 | -58.30702 | 36679 ft | 372 kts | 11° |
| 2026-05-07 19:36 | -32.11374 | -58.28927 | 36679 ft | 371 kts | 11° |
| 2026-05-07 19:37 | -32.06455 | -58.27155 | 36679 ft | 371 kts | 11° |
| 2026-05-07 19:37 | -32.01529 | -58.25396 | 36669 ft | 371 kts | 11° |
| 2026-05-07 19:38 | -31.96610 | -58.23635 | 36672 ft | 370 kts | 10° |
| 2026-05-07 19:38 | -31.91692 | -58.21881 | 36660 ft | 371 kts | 10° |
| 2026-05-07 19:39 | -31.86751 | -58.20117 | 36644 ft | 371 kts | 10° |
| 2026-05-07 19:39 | -31.81844 | -58.18355 | 36656 ft | 367 kts | 10° |
| 2026-05-07 19:40 | -31.76981 | -58.16626 | 36670 ft | 365 kts | 10° |
| 2026-05-07 19:40 | -31.72130 | -58.14899 | 36671 ft | 365 kts | 11° |
| 2026-05-07 19:41 | -31.67289 | -58.13180 | 36645 ft | 364 kts | 10° |
| 2026-05-07 19:41 | -31.62453 | -58.11462 | 36673 ft | 364 kts | 10° |
| 2026-05-07 19:42 | -31.57568 | -58.09726 | 36680 ft | 370 kts | 11° |
| 2026-05-07 19:42 | -31.52617 | -58.07975 | 36681 ft | 373 kts | 10° |
| 2026-05-07 19:43 | -31.47640 | -58.06213 | 36678 ft | 374 kts | 10° |
| 2026-05-07 19:43 | -31.42733 | -58.04470 | 36685 ft | 366 kts | 10° |
| 2026-05-07 19:44 | -31.37867 | -58.02753 | 36672 ft | 368 kts | 10° |
| 2026-05-07 19:44 | -31.32930 | -58.01021 | 36688 ft | 375 kts | 10° |
| 2026-05-07 19:45 | -31.27919 | -57.99244 | 36682 ft | 378 kts | 10° |
| 2026-05-07 19:45 | -31.22904 | -57.97473 | 36682 ft | 377 kts | 10° |
| 2026-05-07 19:46 | -31.17900 | -57.95717 | 36675 ft | 375 kts | 11° |
| 2026-05-07 19:46 | -31.12928 | -57.93975 | 36663 ft | 374 kts | 10° |
| 2026-05-07 19:47 | -31.07941 | -57.92220 | 36612 ft | 376 kts | 9° |
| 2026-05-07 19:47 | -31.02984 | -57.90480 | 36664 ft | 370 kts | 9° |
| 2026-05-07 19:48 | -30.98034 | -57.88749 | 36670 ft | 373 kts | 9° |
| 2026-05-07 19:48 | -30.93088 | -57.87016 | 36666 ft | 372 kts | 9° |
| 2026-05-07 19:49 | -30.88147 | -57.85288 | 36653 ft | 372 kts | 9° |
| 2026-05-07 19:49 | -30.83180 | -57.83554 | 36673 ft | 375 kts | 9° |
| 2026-05-07 19:50 | -30.78190 | -57.81816 | 36670 ft | 375 kts | 9° |
| 2026-05-07 19:50 | -30.73203 | -57.80080 | 36664 ft | 374 kts | 9° |
| 2026-05-07 19:51 | -30.68229 | -57.78349 | 36665 ft | 374 kts | 9° |
| 2026-05-07 19:51 | -30.63254 | -57.76605 | 36672 ft | 374 kts | 9° |
| 2026-05-07 19:52 | -30.58262 | -57.74854 | 36664 ft | 376 kts | 8° |
| 2026-05-07 19:52 | -30.53250 | -57.73103 | 36675 ft | 377 kts | 9° |
| 2026-05-07 19:53 | -30.48246 | -57.71352 | 36674 ft | 376 kts | 8° |
| 2026-05-07 19:53 | -30.43248 | -57.69607 | 36669 ft | 375 kts | 8° |
| 2026-05-07 19:54 | -30.38248 | -57.67863 | 36671 ft | 376 kts | 8° |
| 2026-05-07 19:54 | -30.33268 | -57.66126 | 36655 ft | 373 kts | 8° |
| 2026-05-07 19:55 | -30.28312 | -57.64410 | 36647 ft | 373 kts | 8° |
| 2026-05-07 19:55 | -30.25868 | -57.63330 | 36668 ft | 384 kts | 17° |
| 2026-05-07 19:55 | -30.23476 | -57.61947 | 36667 ft | 386 kts | 18° |
| 2026-05-07 19:56 | -30.18675 | -57.59062 | 36672 ft | 392 kts | 19° |
| 2026-05-07 19:56 | -30.13842 | -57.56146 | 36676 ft | 393 kts | 18° |
| 2026-05-07 19:57 | -30.09020 | -57.53275 | 36675 ft | 390 kts | 18° |
| 2026-05-07 19:57 | -30.04200 | -57.50395 | 36659 ft | 393 kts | 18° |
| 2026-05-07 19:58 | -29.99294 | -57.47492 | 36664 ft | 400 kts | 18° |
| 2026-05-07 19:58 | -29.94355 | -57.44533 | 36671 ft | 401 kts | 18° |
| 2026-05-07 19:59 | -29.89409 | -57.41595 | 36669 ft | 402 kts | 18° |
| 2026-05-07 19:59 | -29.84463 | -57.38660 | 36662 ft | 399 kts | 18° |
| 2026-05-07 20:00 | -29.79547 | -57.35744 | 36648 ft | 400 kts | 18° |
| 2026-05-07 20:00 | -29.74566 | -57.32802 | 36649 ft | 408 kts | 18° |
| 2026-05-07 20:01 | -29.69516 | -57.29800 | 36657 ft | 409 kts | 19° |
| 2026-05-07 20:01 | -29.64459 | -57.26810 | 36649 ft | 413 kts | 18° |
| 2026-05-07 20:02 | -29.59354 | -57.23790 | 36645 ft | 414 kts | 19° |
| 2026-05-07 20:02 | -29.54258 | -57.20778 | 36652 ft | 410 kts | 18° |
| 2026-05-07 20:03 | -29.49190 | -57.17811 | 36650 ft | 410 kts | 18° |
| 2026-05-07 20:03 | -29.44128 | -57.14820 | 36583 ft | 410 kts | 18° |
| 2026-05-07 20:04 | -29.41579 | -57.13322 | 36053 ft | 412 kts | 18° |
| 2026-05-07 20:04 | -29.39036 | -57.11832 | 35597 ft | 410 kts | 18° |
| 2026-05-07 20:04 | -29.36504 | -57.10345 | 35119 ft | 409 kts | 19° |
| 2026-05-07 20:04 | -29.33958 | -57.08848 | 34699 ft | 419 kts | 19° |
| 2026-05-07 20:05 | -29.31334 | -57.07318 | 34238 ft | 428 kts | 19° |
| 2026-05-07 20:05 | -29.28695 | -57.05771 | 33767 ft | 425 kts | 20° |
| 2026-05-07 20:05 | -29.26087 | -57.04228 | 33262 ft | 422 kts | 20° |
| 2026-05-07 20:05 | -29.23494 | -57.02697 | 32790 ft | 417 kts | 20° |
| 2026-05-07 20:06 | -29.20931 | -57.01194 | 32317 ft | 414 kts | 19° |
| 2026-05-07 20:06 | -29.18375 | -56.99707 | 31867 ft | 412 kts | 19° |
| 2026-05-07 20:06 | -29.15827 | -56.98228 | 31436 ft | 410 kts | 19° |
| 2026-05-07 20:06 | -29.13298 | -56.96755 | 30990 ft | 407 kts | 19° |
| 2026-05-07 20:07 | -29.10780 | -56.95275 | 30543 ft | 408 kts | 20° |
| 2026-05-07 20:07 | -29.08297 | -56.93725 | 30096 ft | 407 kts | 22° |
| 2026-05-07 20:07 | -29.05855 | -56.92105 | 29641 ft | 406 kts | 22° |
| 2026-05-07 20:07 | -29.03433 | -56.90482 | 29153 ft | 403 kts | 22° |
| 2026-05-07 20:08 | -29.01023 | -56.88896 | 28702 ft | 399 kts | 21° |
| 2026-05-07 20:08 | -28.98615 | -56.87357 | 28272 ft | 396 kts | 20° |
| 2026-05-07 20:08 | -28.96219 | -56.85839 | 27840 ft | 393 kts | 21° |
| 2026-05-07 20:08 | -28.93852 | -56.84319 | 27409 ft | 390 kts | 21° |
| 2026-05-07 20:09 | -28.91504 | -56.82799 | 26948 ft | 388 kts | 20° |
| 2026-05-07 20:09 | -28.89160 | -56.81282 | 26555 ft | 388 kts | 20° |
| 2026-05-07 20:09 | -28.86821 | -56.79773 | 26144 ft | 386 kts | 20° |
| 2026-05-07 20:10 | -28.82157 | -56.76781 | 25306 ft | 383 kts | 20° |
| 2026-05-07 20:10 | -28.79843 | -56.75300 | 24892 ft | 382 kts | 20° |
| 2026-05-07 20:10 | -28.77528 | -56.73815 | 24471 ft | 382 kts | 20° |
| 2026-05-07 20:10 | -28.75219 | -56.72329 | 24052 ft | 382 kts | 20° |
| 2026-05-07 20:11 | -28.72912 | -56.70845 | 23646 ft | 381 kts | 20° |
| 2026-05-07 20:11 | -28.70605 | -56.69365 | 23246 ft | 381 kts | 20° |
| 2026-05-07 20:11 | -28.68296 | -56.67888 | 22792 ft | 381 kts | 20° |
| 2026-05-07 20:11 | -28.65992 | -56.66413 | 22363 ft | 380 kts | 20° |
| 2026-05-07 20:12 | -28.63696 | -56.64942 | 21928 ft | 379 kts | 20° |
| 2026-05-07 20:12 | -28.61410 | -56.63478 | 21479 ft | 377 kts | 20° |
| 2026-05-07 20:12 | -28.59141 | -56.62025 | 21085 ft | 373 kts | 20° |
| 2026-05-07 20:12 | -28.56887 | -56.60583 | 20699 ft | 371 kts | 20° |
| 2026-05-07 20:13 | -28.54643 | -56.59151 | 20302 ft | 370 kts | 20° |
| 2026-05-07 20:13 | -28.52406 | -56.57725 | 19875 ft | 369 kts | 20° |
| 2026-05-07 20:13 | -28.50181 | -56.56304 | 19455 ft | 366 kts | 20° |
| 2026-05-07 20:13 | -28.47972 | -56.54893 | 19060 ft | 363 kts | 20° |
| 2026-05-07 20:14 | -28.45781 | -56.53494 | 18665 ft | 361 kts | 20° |
| 2026-05-07 20:14 | -28.43604 | -56.52107 | 18267 ft | 358 kts | 20° |
| 2026-05-07 20:14 | -28.41444 | -56.50732 | 17860 ft | 356 kts | 20° |
| 2026-05-07 20:14 | -28.39301 | -56.49367 | 17435 ft | 352 kts | 20° |
| 2026-05-07 20:15 | -28.37181 | -56.48017 | 17053 ft | 348 kts | 20° |
| 2026-05-07 20:15 | -28.35087 | -56.46683 | 16674 ft | 344 kts | 20° |
| 2026-05-07 20:15 | -28.33017 | -56.45366 | 16296 ft | 340 kts | 20° |
| 2026-05-07 20:15 | -28.30972 | -56.44067 | 15912 ft | 335 kts | 20° |
| 2026-05-07 20:16 | -28.28954 | -56.42784 | 15559 ft | 331 kts | 20° |
| 2026-05-07 20:16 | -28.26960 | -56.41517 | 15205 ft | 327 kts | 20° |
| 2026-05-07 20:16 | -28.24989 | -56.40266 | 14849 ft | 323 kts | 20° |
| 2026-05-07 20:16 | -28.23042 | -56.39031 | 14500 ft | 320 kts | 19° |
| 2026-05-07 20:17 | -28.21116 | -56.37811 | 14149 ft | 316 kts | 19° |
| 2026-05-07 20:17 | -28.19209 | -56.36604 | 13807 ft | 313 kts | 19° |
| 2026-05-07 20:17 | -28.17325 | -56.35408 | 13460 ft | 309 kts | 19° |
| 2026-05-07 20:17 | -28.15463 | -56.34227 | 13098 ft | 306 kts | 19° |
| 2026-05-07 20:18 | -28.13625 | -56.33063 | 12751 ft | 301 kts | 19° |
| 2026-05-07 20:18 | -28.11817 | -56.31918 | 12418 ft | 296 kts | 19° |
| 2026-05-07 20:18 | -28.10038 | -56.30791 | 12102 ft | 291 kts | 19° |
| 2026-05-07 20:18 | -28.08285 | -56.29683 | 11774 ft | 287 kts | 19° |
| 2026-05-07 20:19 | -28.06560 | -56.28592 | 11472 ft | 285 kts | 18° |
| 2026-05-07 20:19 | -28.04808 | -56.27493 | 11212 ft | 293 kts | 19° |
| 2026-05-07 20:19 | -28.03015 | -56.26368 | 10869 ft | 295 kts | 19° |
| 2026-05-07 20:19 | -28.01242 | -56.25242 | 10520 ft | 291 kts | 19° |
| 2026-05-07 20:20 | -27.99497 | -56.24132 | 10191 ft | 286 kts | 19° |
| 2026-05-07 20:20 | -27.97778 | -56.23043 | 9908 ft | 281 kts | 18° |
| 2026-05-07 20:20 | -27.96111 | -56.21987 | 9785 ft | 270 kts | 18° |
| 2026-05-07 20:20 | -27.94498 | -56.20968 | 9658 ft | 264 kts | 17° |
| 2026-05-07 20:21 | -27.92886 | -56.19961 | 9330 ft | 266 kts | 17° |
| 2026-05-07 20:21 | -27.91277 | -56.18954 | 9009 ft | 264 kts | 17° |
| 2026-05-07 20:21 | -27.89682 | -56.17949 | 8668 ft | 262 kts | 17° |
| 2026-05-07 20:21 | -27.88101 | -56.16952 | 8334 ft | 260 kts | 17° |
| 2026-05-07 20:22 | -27.86527 | -56.15960 | 8006 ft | 258 kts | 17° |
| 2026-05-07 20:22 | -27.84969 | -56.14978 | 7692 ft | 256 kts | 17° |
| 2026-05-07 20:22 | -27.83421 | -56.14004 | 7356 ft | 254 kts | 17° |
| 2026-05-07 20:22 | -27.81886 | -56.13040 | 7046 ft | 252 kts | 17° |
| 2026-05-07 20:23 | -27.80366 | -56.12083 | 6749 ft | 249 kts | 17° |
| 2026-05-07 20:23 | -27.78864 | -56.11138 | 6468 ft | 246 kts | 17° |
| 2026-05-07 20:23 | -27.77376 | -56.10203 | 6174 ft | 244 kts | 17° |
| 2026-05-07 20:23 | -27.75896 | -56.09276 | 5858 ft | 243 kts | 17° |
| 2026-05-07 20:24 | -27.74425 | -56.08353 | 5539 ft | 242 kts | 17° |
| 2026-05-07 20:24 | -27.72963 | -56.07437 | 5213 ft | 240 kts | 18° |
| 2026-05-07 20:24 | -27.71511 | -56.06527 | 4860 ft | 238 kts | 18° |
| 2026-05-07 20:24 | -27.70074 | -56.05624 | 4541 ft | 236 kts | 19° |
| 2026-05-07 20:25 | -27.68650 | -56.04730 | 4221 ft | 234 kts | 19° |
| 2026-05-07 20:25 | -27.67230 | -56.03842 | 3881 ft | 234 kts | 20° |
| 2026-05-07 20:25 | -27.65814 | -56.02953 | 3552 ft | 233 kts | 20° |
| 2026-05-07 20:25 | -27.64396 | -56.02066 | 3217 ft | 234 kts | 21° |
| 2026-05-07 20:26 | -27.62978 | -56.01180 | 2913 ft | 233 kts | 21° |
| 2026-05-07 20:26 | -27.61562 | -56.00295 | 2610 ft | 233 kts | 22° |
| 2026-05-07 20:26 | -27.60150 | -55.99411 | 2300 ft | 232 kts | 23° |
| 2026-05-07 20:26 | -27.58740 | -55.98527 | 2056 ft | 231 kts | 23° |
| 2026-05-07 20:27 | -27.57347 | -55.97652 | 2018 ft | 228 kts | 22° |
| 2026-05-07 20:27 | -27.55941 | -55.96949 | 2003 ft | 215 kts | 8° |
| 2026-05-07 20:27 | -27.54483 | -55.96797 | 1991 ft | 205 kts | 359° |
| 2026-05-07 20:27 | -27.53109 | -55.96795 | 1980 ft | 191 kts | 358° |
| 2026-05-07 20:28 | -27.51837 | -55.96819 | 2005 ft | 176 kts | 356° |
| 2026-05-07 20:28 | -27.50695 | -55.96843 | 1995 ft | 150 kts | 356° |
| 2026-05-07 20:28 | -27.49690 | -55.96863 | 2008 ft | 141 kts | 356° |
| 2026-05-07 20:28 | -27.48732 | -55.96881 | 1984 ft | 136 kts | 356° |
| 2026-05-07 20:29 | -27.47779 | -55.96900 | 1949 ft | 141 kts | 355° |
| 2026-05-07 20:29 | -27.46797 | -55.96916 | 1820 ft | 142 kts | 355° |
| 2026-05-07 20:29 | -27.45822 | -55.96931 | 1674 ft | 137 kts | 354° |
| 2026-05-07 20:29 | -27.44864 | -55.96947 | 1536 ft | 140 kts | 354° |
| 2026-05-07 20:30 | -27.43890 | -55.96962 | 1325 ft | 136 kts | 356° |
| 2026-05-07 20:30 | -27.42953 | -55.96976 | 1150 ft | 136 kts | 356° |
| 2026-05-07 20:30 | -27.41996 | -55.96993 | 1065 ft | 140 kts | 358° |
| 2026-05-07 20:30 | -27.41026 | -55.97009 | 810 ft | 139 kts | 356° |
| 2026-05-07 20:31 | -27.40048 | -55.97027 | 602 ft | 142 kts | 356° |
| 2026-05-07 20:31 | -27.39077 | -55.97039 | 455 ft | 131 kts | 355° |
| 2026-05-07 20:31 | -27.38284 | -55.97060 | 408 ft | 77 kts | 359° |
| 2026-05-07 20:31 | -27.38032 | -55.97061 | 401 ft | 18 kts | 6° |
| 2026-05-07 20:32 | -27.37976 | -55.97057 | 399 ft | 1 kts | 314° |
| 2026-05-07 20:32 | -27.37975 | -55.97061 | 399 ft | 1 kts | 298° |
| 2026-05-07 20:32 | -27.37982 | -55.97047 | 400 ft | 0 kts | 301° |
| 2026-05-07 20:32 | -27.37976 | -55.97062 | 396 ft | 5 kts | 294° |
| 2026-05-07 20:33 | -27.37956 | -55.97076 | 397 ft | 4 kts | 337° |
| 2026-05-07 20:33 | -27.37897 | -55.97076 | 397 ft | 11 kts | 8° |
| 2026-05-07 20:33 | -27.37824 | -55.97067 | 392 ft | 11 kts | 15° |
| 2026-05-07 20:33 | -27.37763 | -55.97047 | 394 ft | 7 kts | 334° |
| 2026-05-07 20:34 | -27.37713 | -55.97077 | 391 ft | 10 kts | 358° |
| 2026-05-07 20:34 | -27.37637 | -55.97078 | 388 ft | 12 kts | 347° |
| 2026-05-07 20:34 | -27.37579 | -55.97061 | 385 ft | 8 kts | 71° |
| 2026-05-07 20:34 | -27.37588 | -55.96990 | 385 ft | 10 kts | 130° |
| 2026-05-07 20:35 | -27.37651 | -55.96983 | 387 ft | 11 kts | 202° |
| 2026-05-07 20:35 | -27.37766 | -55.97048 | 394 ft | 20 kts | 204° |
| 2026-05-07 20:35 | -27.37900 | -55.97066 | 393 ft | 19 kts | 181° |
| 2026-05-07 20:35 | -27.38093 | -55.97062 | 402 ft | 37 kts | 179° |
| 2026-05-07 20:36 | -27.38378 | -55.97057 | 409 ft | 41 kts | 179° |
| 2026-05-07 20:36 | -27.38650 | -55.97052 | 415 ft | 37 kts | 179° |
| 2026-05-07 20:36 | -27.38878 | -55.97043 | 414 ft | 24 kts | 165° |
| 2026-05-07 20:36 | -27.39019 | -55.96976 | 425 ft | 17 kts | 149° |
| 2026-05-07 20:37 | -27.39081 | -55.96906 | 428 ft | 12 kts | 105° |
| 2026-05-07 20:37 | -27.39083 | -55.96822 | 428 ft | 7 kts | 89° |
| 2026-05-07 20:37 | -27.39102 | -55.96782 | 429 ft | 6 kts | 151° |
| 2026-05-07 20:37 | -27.39147 | -55.96777 | 419 ft | 7 kts | 181° |
| 2026-05-07 20:38 | -27.39185 | -55.96767 | 429 ft | 4 kts | 131° |
| 2026-05-07 20:38 | -27.39196 | -55.96741 | 430 ft | 3 kts | 131° |
| 2026-05-07 20:38 | -27.39202 | -55.96737 | 430 ft | 0 kts | 151° |